Time;durP1;ratioP1;P1;durP2;ratioP2;P2;SDS_P1;SDS_P2;PMS_P1;PMS_P2;Temp;Humidity;BMP_temperature;BMP_pressure;BME280_temperature;BME280_humidity;BME280_pressure;Samples;Min_cycle;Max_cycle;Signal;HPM_P1;HPM_P2
2022/04/12 00:01:23;;;;;;;9.15;5.07;;;;;;;4.37;69.96;93648.41;5032324;28;20064;-48
2022/04/12 00:03:50;;;;;;;8.97;5.13;;;;;;;4.43;70.13;93646.06;5032956;28;20038;-53
2022/04/12 00:06:17;;;;;;;8.45;4.60;;;;;;;4.47;69.89;93652.34;5032526;28;20053;-47
2022/04/12 00:08:44;;;;;;;10.05;5.00;;;;;;;4.49;69.99;93653.50;5032450;28;20103;-47
2022/04/12 00:11:11;;;;;;;8.65;4.93;;;;;;;4.39;70.01;93649.56;5032244;28;20045;-48
2022/04/12 00:13:38;;;;;;;9.98;5.05;;;;;;;4.31;70.88;93653.44;5032800;28;20045;-54
2022/04/12 00:16:05;;;;;;;8.07;4.80;;;;;;;4.35;70.91;93656.16;5014565;28;20510;-50
2022/04/12 00:21:17;;;;;;;8.40;4.57;;;;;;;4.34;70.07;93652.66;5031085;28;20509;-48
2022/04/12 00:23:45;;;;;;;8.32;4.53;;;;;;;4.23;70.55;93645.63;5031190;28;20441;-49
2022/04/12 00:26:12;;;;;;;8.00;4.47;;;;;;;4.23;70.87;93654.56;5032055;28;20047;-50
2022/04/12 00:28:41;;;;;;;9.57;4.43;;;;;;;4.24;70.61;93656.09;5032438;28;20045;-48
2022/04/12 00:31:09;;;;;;;9.30;4.65;;;;;;;4.25;70.42;93646.81;5031905;28;20045;-50
2022/04/12 00:33:36;;;;;;;8.80;4.70;;;;;;;4.25;70.16;93652.25;5031383;28;20045;-48
2022/04/12 00:36:04;;;;;;;7.88;4.55;;;;;;;4.24;70.07;93652.63;5032506;28;20055;-50
2022/04/12 00:38:33;;;;;;;8.68;4.70;;;;;;;4.19;70.43;93653.75;5031180;28;20909;-48
2022/04/12 00:41:00;;;;;;;7.37;4.43;;;;;;;4.18;69.98;93658.41;5031004;28;20106;-54
2022/04/12 00:43:30;;;;;;;7.20;4.63;;;;;;;4.15;69.68;93648.31;5031838;28;20041;-54
2022/04/12 00:46:00;;;;;;;8.45;4.45;;;;;;;4.12;70.71;93653.72;5032185;28;20041;-48
2022/04/12 00:48:31;;;;;;;8.75;4.60;;;;;;;4.06;70.64;93649.81;5031564;28;20053;-54
2022/04/12 00:51:00;;;;;;;7.97;4.63;;;;;;;3.96;70.77;93654.03;5031853;28;20042;-48
2022/04/12 00:53:27;;;;;;;6.93;4.40;;;;;;;3.82;71.98;93656.66;5031552;28;20048;-50
2022/04/12 00:55:54;;;;;;;7.97;4.70;;;;;;;3.81;71.94;93645.03;5031950;28;20038;-48
2022/04/12 00:58:21;;;;;;;8.57;4.93;;;;;;;3.78;71.59;93645.78;5031266;28;20049;-47
2022/04/12 01:00:50;;;;;;;8.38;4.68;;;;;;;3.79;71.89;93645.41;5031312;28;20041;-52
2022/04/12 01:03:17;;;;;;;9.65;4.72;;;;;;;3.80;71.71;93646.16;5031449;28;20057;-48
2022/04/12 01:05:44;;;;;;;8.63;4.50;;;;;;;3.82;71.86;93645.81;5024366;28;20072;-47
2022/04/12 01:08:11;;;;;;;8.90;4.88;;;;;;;3.63;72.12;93642.22;5024087;28;20049;-54
2022/04/12 01:10:39;;;;;;;9.18;5.50;;;;;;;3.61;72.63;93639.09;5063232;28;20056;-47
2022/04/12 01:13:06;;;;;;;9.48;5.22;;;;;;;3.67;72.22;93642.22;5031199;28;20050;-46
2022/04/12 01:15:33;;;;;;;10.60;5.18;;;;;;;3.63;72.62;93642.22;5030112;28;20043;-48
2022/04/12 01:17:59;;;;;;;9.47;5.10;;;;;;;3.61;72.20;93639.09;5031459;28;20053;-47
2022/04/12 01:20:30;;;;;;;8.95;5.10;;;;;;;3.54;72.36;93642.53;5029778;28;20405;-50
2022/04/12 01:23:26;;;;;;;8.07;4.60;;;;;;;3.52;72.08;93633.19;5031495;28;20045;-49
2022/04/12 01:25:53;;;;;;;7.85;4.68;;;;;;;3.36;73.19;93647.84;5030520;28;20616;-53
2022/04/12 01:28:20;;;;;;;10.50;5.03;;;;;;;3.26;74.34;93643.13;5030492;28;20049;-50
2022/04/12 01:30:47;;;;;;;9.57;4.83;;;;;;;3.19;74.61;93641.09;5030060;28;20494;-48
2022/04/12 01:33:13;;;;;;;9.55;5.18;;;;;;;3.08;74.48;93642.16;5030907;28;20103;-55
2022/04/12 01:35:40;;;;;;;11.35;6.18;;;;;;;3.09;75.08;93639.09;5031284;28;20041;-47
2022/04/12 01:38:07;;;;;;;15.68;8.13;;;;;;;3.03;75.18;93645.22;5029343;28;20041;-51
2022/04/12 01:40:34;;;;;;;25.20;12.40;;;;;;;3.08;75.40;93645.69;5031067;28;20049;-49
2022/04/12 01:43:00;;;;;;;32.47;15.67;;;;;;;3.11;75.08;93638.72;5031210;28;20064;-50
2022/04/12 01:45:27;;;;;;;12.70;6.43;;;;;;;3.03;75.41;93637.09;5030724;28;20475;-48
2022/04/12 01:47:56;;;;;;;11.23;6.13;;;;;;;3.04;74.98;93639.44;5031141;28;20493;-46
2022/04/12 01:50:22;;;;;;;11.05;5.80;;;;;;;3.06;74.72;93637.13;5028935;28;20048;-47
2022/04/12 01:52:49;;;;;;;10.23;5.50;;;;;;;3.07;74.67;93632.47;5030740;28;20048;-47
2022/04/12 01:55:16;;;;;;;10.10;5.50;;;;;;;3.03;74.65;93620.84;5030418;28;20061;-47
2022/04/12 01:57:43;;;;;;;12.65;5.22;;;;;;;2.93;75.60;93633.13;5029651;28;20707;-50
2022/04/12 02:00:10;;;;;;;9.20;5.60;;;;;;;2.80;75.87;93638.84;5030310;28;20038;-49
2022/04/12 02:02:37;;;;;;;8.68;5.40;;;;;;;2.82;75.88;93637.66;5030728;28;20041;-49
2022/04/12 02:05:04;;;;;;;9.23;5.40;;;;;;;2.86;75.42;93628.44;5027760;28;20142;-44
2022/04/12 02:07:31;;;;;;;10.10;5.37;;;;;;;2.68;76.14;93633.69;5021104;28;20052;-48
2022/04/12 02:10:01;;;;;;;9.73;5.70;;;;;;;2.63;76.75;93634.00;5030420;28;20055;-48
2022/04/12 02:12:27;;;;;;;12.00;5.90;;;;;;;2.66;76.70;93627.09;5029692;28;20046;-47
2022/04/12 02:14:54;;;;;;;18.08;9.80;;;;;;;2.72;76.64;93628.31;5030320;28;20486;-49
2022/04/12 02:17:21;;;;;;;16.13;7.97;;;;;;;2.75;76.13;93624.84;5030045;28;20486;-49
2022/04/12 02:19:48;;;;;;;10.97;6.00;;;;;;;2.73;75.77;93617.06;5030234;28;20051;-50
2022/04/12 02:22:15;;;;;;;11.73;5.65;;;;;;;2.71;75.79;93619.38;5030112;28;20387;-48
2022/04/12 02:24:41;;;;;;;10.95;5.50;;;;;;;2.69;76.04;93618.97;5030263;28;20380;-47
2022/04/12 02:27:08;;;;;;;11.43;5.78;;;;;;;2.58;76.62;93613.47;5029964;28;20045;-50
2022/04/12 02:29:35;;;;;;;11.18;5.70;;;;;;;2.41;77.82;93616.75;5030211;28;20038;-48
2022/04/12 02:32:06;;;;;;;10.73;5.80;;;;;;;2.22;78.35;93619.66;5030318;28;20056;-56
2022/04/12 02:34:33;;;;;;;11.95;5.82;;;;;;;2.04;79.33;93622.16;5029231;28;21706;-48
2022/04/12 02:37:00;;;;;;;10.20;5.93;;;;;;;2.18;78.99;93623.09;5030345;28;20041;-52
2022/04/12 02:39:27;;;;;;;10.40;5.90;;;;;;;2.25;78.76;93632.44;5029483;28;20044;-49
2022/04/12 02:41:55;;;;;;;12.38;6.22;;;;;;;2.07;79.97;93624.09;5030405;28;20053;-53
2022/04/12 02:44:21;;;;;;;11.97;6.17;;;;;;;2.17;79.14;93618.03;5029601;28;20054;-46
2022/04/12 02:46:48;;;;;;;10.32;5.85;;;;;;;2.26;78.80;93617.78;5030037;28;20045;-46
2022/04/12 02:49:15;;;;;;;11.80;6.03;;;;;;;2.31;77.91;93618.19;5029741;28;20050;-47
2022/04/12 02:51:41;;;;;;;11.07;5.45;;;;;;;2.29;78.21;93617.00;5030109;28;20122;-52
2022/04/12 02:54:08;;;;;;;11.00;5.47;;;;;;;2.31;77.82;93615.50;5029605;28;20067;-48
2022/04/12 02:56:35;;;;;;;40.50;18.43;;;;;;;2.33;77.81;93609.72;5030202;28;20375;-46
2022/04/12 02:59:02;;;;;;;13.30;6.88;;;;;;;2.35;77.33;93610.88;5030052;28;20037;-50
2022/04/12 03:01:28;;;;;;;10.55;6.05;;;;;;;2.36;77.03;93607.03;5029118;28;20050;-50
2022/04/12 03:03:55;;;;;;;10.90;5.53;;;;;;;2.40;76.61;93602.44;5030123;28;20072;-48
2022/04/12 03:06:22;;;;;;;9.23;5.40;;;;;;;2.32;76.86;93600.81;5029531;28;20053;-53
2022/04/12 03:08:49;;;;;;;10.67;5.80;;;;;;;2.31;76.84;93601.94;5029856;28;20050;-50
2022/04/12 03:11:15;;;;;;;10.77;5.25;;;;;;;2.31;77.02;93599.25;5029469;28;20052;-47
2022/04/12 03:13:45;;;;;;;10.20;5.00;;;;;;;2.29;77.15;93595.34;5028762;28;20056;-50
2022/04/12 03:16:11;;;;;;;9.48;5.20;;;;;;;2.27;77.48;93598.44;5029461;28;20052;-47
2022/04/12 03:18:38;;;;;;;9.82;5.22;;;;;;;2.24;77.27;93595.69;5029740;28;20098;-53
2022/04/12 03:21:05;;;;;;;10.23;5.70;;;;;;;2.23;77.73;93600.31;5029502;28;20060;-49
2022/04/12 03:23:32;;;;;;;13.07;5.85;;;;;;;2.20;77.68;93596.44;5031073;28;20045;-53
2022/04/12 03:25:59;;;;;;;11.00;5.65;;;;;;;2.11;78.38;93590.53;5032561;28;20033;-51
2022/04/12 03:28:26;;;;;;;10.48;6.05;;;;;;;2.00;79.12;93603.16;5033082;28;20037;-50
2022/04/12 03:30:52;;;;;;;10.88;5.95;;;;;;;1.94;79.19;93594.56;5032196;28;20041;-48
2022/04/12 03:33:19;;;;;;;10.97;6.07;;;;;;;1.95;79.30;93606.19;5033056;28;20053;-48
2022/04/12 03:35:46;;;;;;;10.70;5.97;;;;;;;1.98;79.08;93598.09;5033537;28;20037;-47
2022/04/12 03:38:14;;;;;;;9.80;5.70;;;;;;;1.98;78.90;93595.41;5032808;28;20052;-51
2022/04/12 03:40:42;;;;;;;11.73;5.93;;;;;;;1.99;78.65;93588.84;5032159;28;20103;-53
2022/04/12 03:43:08;;;;;;;12.52;7.07;;;;;;;2.00;78.66;93598.50;5033040;28;20052;-53
2022/04/12 03:45:35;;;;;;;11.20;6.00;;;;;;;2.02;78.44;93594.69;5031913;28;20043;-49
2022/04/12 03:48:02;;;;;;;12.93;6.20;;;;;;;2.06;78.18;93596.25;5033104;28;20049;-51
2022/04/12 03:50:30;;;;;;;9.90;5.75;;;;;;;2.03;78.76;93596.22;5032286;28;20668;-53
2022/04/12 03:52:57;;;;;;;9.27;5.63;;;;;;;2.03;78.57;93590.81;5031734;28;20049;-53
2022/04/12 03:55:35;;;;;;;13.02;7.55;;;;;;;2.07;78.64;93602.44;5032667;28;20051;-51
2022/04/12 03:58:04;;;;;;;11.93;6.03;;;;;;;2.07;78.37;93597.03;5032828;28;20033;-51
2022/04/12 04:00:33;;;;;;;10.60;5.93;;;;;;;1.91;79.27;93600.75;5032011;28;20792;-52
2022/04/12 04:03:00;;;;;;;10.45;5.93;;;;;;;1.79;79.50;93590.94;5022949;28;20071;-51
2022/04/12 04:05:27;;;;;;;10.68;5.72;;;;;;;1.88;79.37;93598.00;5017064;28;20048;-50
2022/04/12 04:07:54;;;;;;;10.45;5.88;;;;;;;1.85;79.12;93604.13;5023976;28;20049;-52
2022/04/12 04:10:21;;;;;;;10.27;5.83;;;;;;;1.79;79.55;93598.25;5032164;28;20089;-49
2022/04/12 04:12:48;;;;;;;10.48;5.80;;;;;;;1.81;79.63;93595.94;5032846;28;20045;-50
2022/04/12 04:15:15;;;;;;;9.50;5.78;;;;;;;1.77;79.84;93593.22;5032174;28;20048;-48
2022/04/12 04:17:43;;;;;;;11.73;5.70;;;;;;;1.80;79.64;93597.88;5031296;28;20045;-53
2022/04/12 04:20:11;;;;;;;11.60;6.05;;;;;;;1.86;79.61;93594.88;5030710;28;20081;-49
2022/04/12 04:22:40;;;;;;;10.10;5.80;;;;;;;1.88;79.95;93595.28;5032694;28;20145;-51
2022/04/12 04:25:12;;;;;;;12.05;5.97;;;;;;;1.86;80.07;93598.34;5032076;28;20049;-51
2022/04/12 04:27:41;;;;;;;11.07;6.13;;;;;;;1.57;81.16;93598.00;5032325;28;20049;-49
2022/04/12 04:30:09;;;;;;;10.80;6.10;;;;;;;1.55;81.50;93597.56;5012121;28;20073;-49
2022/04/12 04:32:35;;;;;;;10.18;5.65;;;;;;;1.61;81.17;93606.16;5027403;28;20048;-49
2022/04/12 04:35:03;;;;;;;10.53;5.57;;;;;;;1.61;81.57;93606.16;5011451;28;20046;-48
2022/04/12 04:37:30;;;;;;;10.15;5.60;;;;;;;1.73;80.93;93599.72;5011458;28;20657;-54
2022/04/12 04:39:57;;;;;;;11.70;6.70;;;;;;;1.75;80.87;93600.94;5012235;28;20050;-48
2022/04/12 04:42:24;;;;;;;9.93;5.68;;;;;;;1.79;80.87;93598.25;5012224;28;20052;-47
2022/04/12 04:44:51;;;;;;;10.15;5.85;;;;;;;1.88;80.17;93606.09;5012497;28;20053;-47
2022/04/12 04:47:18;;;;;;;10.13;6.03;;;;;;;1.93;80.11;93609.28;5011594;28;20410;-46
2022/04/12 04:49:44;;;;;;;10.20;5.60;;;;;;;2.00;79.58;93598.50;5012393;28;20053;-48
2022/04/12 04:52:11;;;;;;;10.80;6.25;;;;;;;2.01;79.68;93604.69;5011814;28;20064;-47
2022/04/12 04:54:38;;;;;;;12.05;5.90;;;;;;;2.05;79.57;93600.09;5011818;28;20046;-56
2022/04/12 04:57:05;;;;;;;10.35;5.93;;;;;;;2.14;79.34;93591.72;5043240;28;20050;-50
2022/04/12 04:59:32;;;;;;;11.70;6.17;;;;;;;1.97;79.48;93596.56;5043303;28;20407;-50
2022/04/12 05:01:58;;;;;;;9.90;5.75;;;;;;;2.08;79.42;93598.63;5011980;28;20725;-51
2022/04/12 05:04:25;;;;;;;10.90;6.03;;;;;;;2.20;78.72;93601.06;5011428;28;20045;-52
2022/04/12 05:06:52;;;;;;;11.55;6.10;;;;;;;2.23;78.43;93603.03;5045842;28;20049;-53
2022/04/12 05:09:19;;;;;;;11.82;6.30;;;;;;;2.11;79.26;93601.38;5030867;28;20049;-49
2022/04/12 05:11:45;;;;;;;11.73;6.23;;;;;;;2.23;78.72;93599.53;5031938;28;20033;-49
2022/04/12 05:14:12;;;;;;;12.27;5.72;;;;;;;2.36;78.25;93607.03;5029867;28;20414;-50
2022/04/12 05:16:39;;;;;;;12.13;5.85;;;;;;;2.38;78.34;93599.31;5030080;28;20058;-50
2022/04/12 05:19:06;;;;;;;10.43;5.60;;;;;;;2.34;78.56;93609.34;5029725;28;20057;-49
2022/04/12 05:21:33;;;;;;;12.23;5.80;;;;;;;2.30;78.96;93608.53;5031479;28;20045;-54
2022/04/12 05:23:59;;;;;;;10.90;6.23;;;;;;;2.32;78.76;93595.41;5029835;28;20057;-50
2022/04/12 05:26:26;;;;;;;12.13;6.40;;;;;;;2.42;78.40;93604.78;5029806;28;20048;-48
2022/04/12 05:28:53;;;;;;;12.38;6.00;;;;;;;2.53;78.30;93599.47;5031334;28;20054;-50
2022/04/12 05:31:19;;;;;;;10.65;6.00;;;;;;;2.63;77.77;93590.66;5030487;28;20049;-52
2022/04/12 05:33:46;;;;;;;13.55;6.38;;;;;;;2.68;77.59;93595.75;5031310;28;20045;-52
2022/04/12 05:36:15;;;;;;;12.43;6.70;;;;;;;2.74;77.04;93593.50;5030906;28;20053;-51
2022/04/12 05:38:41;;;;;;;12.27;6.65;;;;;;;2.38;78.25;93601.25;5031235;28;20041;-51
2022/04/12 05:41:08;;;;;;;11.63;6.57;;;;;;;2.35;78.53;93599.28;5030794;28;20051;-49
2022/04/12 05:43:35;;;;;;;11.23;6.28;;;;;;;2.40;78.31;93607.09;5030734;28;20033;-48
2022/04/12 05:46:02;;;;;;;15.45;7.40;;;;;;;2.47;78.66;93604.44;5030612;28;20034;-52
2022/04/12 05:48:29;;;;;;;13.00;7.50;;;;;;;2.52;78.75;93603.34;5029093;28;20384;-49
2022/04/12 05:50:56;;;;;;;13.75;7.30;;;;;;;2.63;78.61;93608.84;5031111;28;20500;-54
2022/04/12 05:53:22;;;;;;;16.00;7.70;;;;;;;2.66;77.99;93608.13;5030364;28;20050;-60
2022/04/12 05:55:49;;;;;;;14.88;7.60;;;;;;;2.96;77.63;93608.78;5031012;28;20406;-47
2022/04/12 05:58:16;;;;;;;15.27;7.78;;;;;;;3.15;76.65;93607.75;5030310;28;20052;-48
2022/04/12 06:00:43;;;;;;;15.50;7.87;;;;;;;3.16;76.15;93603.91;5028446;28;20722;-54
2022/04/12 06:03:09;;;;;;;13.60;7.63;;;;;;;3.21;76.61;93602.78;5021695;28;20061;-49
2022/04/12 06:05:36;;;;;;;14.98;7.60;;;;;;;3.36;76.44;93603.63;5011111;28;20103;-54
2022/04/12 06:08:03;;;;;;;14.52;7.38;;;;;;;3.61;75.41;93609.25;5021648;28;20037;-52
2022/04/12 06:10:31;;;;;;;18.40;7.88;;;;;;;3.91;74.58;93600.88;5029358;28;20704;-50
2022/04/12 06:12:59;;;;;;;15.97;7.40;;;;;;;4.06;74.08;93607.13;5030601;28;20037;-48
2022/04/12 06:15:27;;;;;;;13.35;7.32;;;;;;;4.16;73.78;93602.91;5029858;28;20493;-50
2022/04/12 06:17:53;;;;;;;13.98;7.28;;;;;;;4.42;73.30;93603.78;5030431;28;20119;-49
2022/04/12 06:20:20;;;;;;;11.73;6.80;;;;;;;4.88;72.49;93597.66;5030021;28;20398;-55
2022/04/12 06:22:47;;;;;;;11.50;6.10;;;;;;;5.00;70.55;93592.63;5030686;28;20055;-48
2022/04/12 06:25:16;;;;;;;12.90;6.60;;;;;;;5.42;70.29;93592.25;5029937;28;20056;-52
2022/04/12 06:27:50;;;;;;;13.48;6.32;;;;;;;5.38;69.92;93594.97;5029865;28;20049;-50
2022/04/12 06:30:23;;;;;;;12.30;6.22;;;;;;;5.69;68.91;93600.75;5027481;28;20049;-51
2022/04/12 06:32:50;;;;;;;11.15;6.78;;;;;;;5.99;68.04;93609.25;5029471;28;20064;-47
2022/04/12 06:35:18;;;;;;;10.45;6.50;;;;;;;5.82;68.54;93604.63;5029349;28;20045;-53
2022/04/12 06:37:46;;;;;;;12.17;6.70;;;;;;;6.06;67.63;93607.69;5029776;28;20045;-48
2022/04/12 06:40:15;;;;;;;15.30;7.38;;;;;;;7.06;65.15;93611.84;5029127;28;20064;-48
2022/04/12 06:42:42;;;;;;;14.02;7.00;;;;;;;9.38;58.50;93607.75;5028933;28;20090;-51
2022/04/12 06:45:11;;;;;;;10.90;6.32;;;;;;;10.74;53.58;93607.25;5029694;28;20491;-48
2022/04/12 06:47:39;;;;;;;10.85;6.65;;;;;;;11.65;50.41;93607.59;5030111;28;20083;-49
2022/04/12 06:50:07;;;;;;;14.30;6.73;;;;;;;12.47;48.64;93603.91;5029739;28;20067;-51
2022/04/12 06:52:34;;;;;;;11.10;6.82;;;;;;;13.17;47.05;93605.06;5029795;28;20057;-50
2022/04/12 06:55:01;;;;;;;16.08;7.00;;;;;;;13.54;45.25;93606.31;5029293;28;20092;-50
2022/04/12 06:57:35;;;;;;;9.50;6.43;;;;;;;14.24;43.09;93600.84;5029489;28;20658;-54
2022/04/12 07:00:05;;;;;;;10.90;6.30;;;;;;;14.33;43.71;93600.94;5033399;28;20049;-60
2022/04/12 07:02:32;;;;;;;13.40;6.30;;;;;;;15.28;42.03;93607.41;5021531;28;20705;-52
2022/04/12 07:05:01;;;;;;;11.75;6.38;;;;;;;15.97;39.22;93603.53;5046035;28;20045;-50
2022/04/12 07:07:28;;;;;;;9.68;6.00;;;;;;;15.77;39.55;93606.72;5020818;28;20037;-52
2022/04/12 07:09:55;;;;;;;11.40;5.90;;;;;;;16.27;39.19;93603.88;5033753;28;20453;-51
2022/04/12 07:12:24;;;;;;;8.70;6.10;;;;;;;15.39;39.95;93613.28;5033184;28;20045;-51
2022/04/12 07:14:51;;;;;;;10.83;6.00;;;;;;;15.29;41.15;93606.97;5033947;28;20125;-50
2022/04/12 07:17:21;;;;;;;12.77;6.13;;;;;;;16.65;38.73;93616.53;5033359;28;20053;-53
2022/04/12 07:19:47;;;;;;;13.52;6.45;;;;;;;17.27;37.88;93616.16;5033540;28;20055;-47
2022/04/12 07:22:14;;;;;;;12.43;6.70;;;;;;;17.66;36.61;93615.56;5033134;28;20045;-55
2022/04/12 07:24:41;;;;;;;11.63;6.63;;;;;;;18.53;34.95;93608.13;5033759;28;20056;-53
2022/04/12 07:27:08;;;;;;;14.43;6.80;;;;;;;18.63;34.33;93608.81;5032140;28;20048;-48
2022/04/12 07:29:35;;;;;;;10.82;6.10;;;;;;;19.52;32.55;93597.78;5033714;28;20060;-54
2022/04/12 07:32:02;;;;;;;11.18;6.50;;;;;;;18.67;34.84;93606.66;5033449;28;20037;-51
2022/04/12 07:34:29;;;;;;;9.75;6.20;;;;;;;20.29;32.19;93603.50;5033391;28;20041;-53
2022/04/12 07:36:56;;;;;;;9.80;5.78;;;;;;;19.70;32.49;93598.84;5033767;28;20061;-51
2022/04/12 07:39:23;;;;;;;9.07;6.17;;;;;;;19.16;33.27;93596.94;5033050;28;20049;-55
2022/04/12 07:41:51;;;;;;;9.65;6.10;;;;;;;18.00;35.61;93600.44;5033569;28;20043;-53
2022/04/12 07:44:19;;;;;;;9.95;6.05;;;;;;;18.77;34.59;93598.97;5031854;28;20050;-53
2022/04/12 07:46:47;;;;;;;8.32;6.00;;;;;;;18.73;34.15;93601.97;5033323;28;20049;-53
2022/04/12 07:49:14;;;;;;;8.90;5.88;;;;;;;18.31;35.28;93589.00;5032720;28;20135;-51
2022/04/12 07:51:41;;;;;;;12.70;6.70;;;;;;;19.21;33.43;93584.38;5033217;28;20048;-53
2022/04/12 07:54:08;;;;;;;10.73;5.82;;;;;;;20.64;32.03;93589.50;5032548;28;20508;-50
2022/04/12 07:56:35;;;;;;;10.00;5.90;;;;;;;20.97;30.69;93593.13;5033291;28;20049;-54
2022/04/12 07:59:03;;;;;;;9.63;5.47;;;;;;;21.17;30.11;93584.75;5033132;28;20045;-55
2022/04/12 08:01:30;;;;;;;8.43;5.38;;;;;;;22.64;28.67;93583.75;5031961;28;21044;-51
2022/04/12 08:03:57;;;;;;;9.03;5.80;;;;;;;22.44;28.04;93587.47;5033158;28;20404;-54
2022/04/12 08:06:24;;;;;;;7.70;5.60;;;;;;;22.07;29.28;93587.47;5032535;28;20061;-52
2022/04/12 08:08:50;;;;;;;10.05;5.68;;;;;;;23.87;26.37;93582.44;5033039;28;20071;-48
2022/04/12 08:11:17;;;;;;;9.30;5.57;;;;;;;24.83;25.14;93589.84;5030949;28;20047;-47
2022/04/12 08:13:45;;;;;;;7.75;4.95;;;;;;;25.42;23.61;93585.72;5032938;28;20034;-49
2022/04/12 08:16:15;;;;;;;8.00;4.30;;;;;;;23.87;26.28;93584.50;5032281;28;20093;-51
2022/04/12 08:18:45;;;;;;;8.52;3.95;;;;;;;24.38;24.07;93584.38;5032525;28;20501;-48
2022/04/12 08:21:12;;;;;;;9.27;3.92;;;;;;;24.57;22.92;93582.56;5031935;28;20053;-48
2022/04/12 08:23:39;;;;;;;7.63;3.30;;;;;;;25.04;22.81;93587.47;5030899;28;20064;-50
2022/04/12 08:26:07;;;;;;;5.70;3.17;;;;;;;25.81;20.67;93578.28;5032381;28;20045;-50
2022/04/12 08:28:34;;;;;;;11.27;2.90;;;;;;;25.28;21.49;93573.56;5032627;28;20056;-52
2022/04/12 08:31:01;;;;;;;5.15;2.50;;;;;;;25.60;20.40;93580.75;5030136;28;20047;-52
2022/04/12 08:33:28;;;;;;;7.10;2.38;;;;;;;26.61;18.79;93571.41;5017380;28;20115;-53
2022/04/12 08:35:54;;;;;;;6.72;2.70;;;;;;;27.01;19.37;93568.84;5030472;28;20052;-50
2022/04/12 08:38:21;;;;;;;6.07;2.50;;;;;;;26.41;20.00;93572.59;5030714;28;20045;-51
2022/04/12 08:40:50;;;;;;;5.40;2.57;;;;;;;26.47;20.17;93566.94;5031044;28;20045;-50
2022/04/12 08:43:20;;;;;;;6.78;2.80;;;;;;;27.01;19.42;93565.28;5030164;28;20049;-53
2022/04/12 08:45:48;;;;;;;5.88;2.33;;;;;;;27.43;18.30;93579.84;5032401;28;20060;-52
2022/04/12 08:48:15;;;;;;;6.68;2.83;;;;;;;26.88;19.41;93577.22;5030298;28;20049;-52
2022/04/12 08:50:43;;;;;;;6.28;3.20;;;;;;;29.22;17.33;93577.19;5032336;28;20041;-53
2022/04/12 08:53:10;;;;;;;4.67;2.50;;;;;;;27.57;17.20;93572.16;5031469;28;20042;-53
2022/04/12 08:55:39;;;;;;;5.40;2.70;;;;;;;27.50;18.20;93574.31;5032020;28;20406;-55
2022/04/12 08:58:05;;;;;;;5.80;2.40;;;;;;;28.09;17.17;93565.19;5031627;28;20049;-52
2022/04/12 09:00:32;;;;;;;4.28;2.03;;;;;;;27.61;17.04;93555.75;5031790;28;20037;-55
2022/04/12 09:02:59;;;;;;;3.70;2.00;;;;;;;27.85;16.76;93560.47;5032140;28;20041;-50
2022/04/12 09:05:28;;;;;;;4.83;2.10;;;;;;;27.76;17.29;93558.81;5031402;28;20107;-49
2022/04/12 09:07:55;;;;;;;5.80;2.10;;;;;;;28.66;16.29;93568.53;5031919;28;20038;-48
2022/04/12 09:10:33;;;;;;;3.53;2.00;;;;;;;29.18;15.70;93571.13;5029777;28;20037;-50
2022/04/12 09:13:14;;;;;;;8.77;2.20;;;;;;;28.70;16.30;93573.84;5031475;28;20049;-48
2022/04/12 09:15:45;;;;;;;5.03;2.30;;;;;;;28.33;16.72;93569.13;5031085;28;20757;-49
2022/04/12 09:18:32;;;;;;;5.33;2.10;;;;;;;26.12;18.90;93577.00;5029790;28;20061;-54
2022/04/12 09:21:27;;;;;;;5.90;2.45;;;;;;;25.54;19.20;93574.41;5031309;28;20045;-51
2022/04/12 09:23:55;;;;;;;4.70;1.92;;;;;;;23.26;20.89;93566.34;5030641;28;20813;-52
2022/04/12 09:26:26;;;;;;;3.60;1.90;;;;;;;26.30;19.17;93558.69;5031027;28;20425;-55
2022/04/12 09:28:54;;;;;;;4.88;1.70;;;;;;;27.38;17.57;93555.31;5031320;28;20041;-52
2022/04/12 09:31:25;;;;;;;4.20;1.80;;;;;;;27.07;18.00;93560.34;5030831;28;20045;-47
2022/04/12 09:33:54;;;;;;;2.90;1.50;;;;;;;26.67;17.13;93560.81;5031110;28;20049;-52
2022/04/12 09:36:21;;;;;;;3.15;1.52;;;;;;;24.08;19.12;93552.06;5030630;28;20071;-49
2022/04/12 09:38:55;;;;;;;3.25;1.70;;;;;;;24.49;19.76;93564.72;5031046;28;20149;-54
2022/04/12 09:41:25;;;;;;;3.65;1.60;;;;;;;23.72;19.65;93556.69;5031069;28;20047;-46
2022/04/12 09:43:57;;;;;;;4.57;1.70;;;;;;;22.49;21.18;93563.59;5031142;28;20049;-53
2022/04/12 09:46:27;;;;;;;5.05;1.48;;;;;;;25.23;18.59;93562.34;5030375;28;20059;-48
2022/04/12 09:48:53;;;;;;;3.05;1.50;;;;;;;26.01;16.33;93554.63;5031045;28;20041;-50
2022/04/12 09:51:23;;;;;;;4.15;1.65;;;;;;;28.42;15.93;93557.44;5029078;28;20090;-55
2022/04/12 09:53:51;;;;;;;3.05;1.40;;;;;;;29.27;15.37;93557.25;5030743;28;20054;-52
2022/04/12 09:56:28;;;;;;;2.90;1.40;;;;;;;31.99;12.91;93547.84;5030291;28;20084;-50
2022/04/12 09:59:00;;;;;;;3.30;1.40;;;;;;;28.89;14.89;93556.78;5030442;28;20069;-52
2022/04/12 10:01:28;;;;;;;3.85;1.55;;;;;;;28.64;14.96;93557.03;5030384;28;20045;-52
2022/04/12 10:03:59;;;;;;;3.40;1.77;;;;;;;29.82;14.22;93555.75;5030694;28;20118;-49
2022/04/12 10:06:28;;;;;;;2.80;1.35;;;;;;;28.74;14.84;93553.78;5030564;28;20043;-55
2022/04/12 10:08:58;;;;;;;4.60;1.70;;;;;;;30.18;13.13;93557.97;5030602;28;20033;-51
2022/04/12 10:11:25;;;;;;;3.30;1.38;;;;;;;29.63;13.33;93555.94;5030424;28;20508;-50
2022/04/12 10:13:53;;;;;;;3.22;1.40;;;;;;;29.57;13.61;93560.97;5029392;28;20041;-52
2022/04/12 10:16:21;;;;;;;4.18;1.23;;;;;;;28.57;13.35;93543.53;5014441;28;20046;-55
2022/04/12 10:18:50;;;;;;;5.80;1.65;;;;;;;30.06;13.14;93544.13;5025454;28;20065;-51
2022/04/12 10:21:19;;;;;;;3.17;1.40;;;;;;;30.79;12.48;93547.06;5030074;28;20199;-54
2022/04/12 10:23:51;;;;;;;2.30;1.20;;;;;;;28.98;13.12;93544.28;5030214;28;20045;-52
2022/04/12 10:26:22;;;;;;;2.45;1.05;;;;;;;27.91;12.68;93537.81;5030061;28;20041;-51
2022/04/12 10:28:54;;;;;;;3.03;1.13;;;;;;;26.64;14.03;93542.19;5030332;28;20060;-52
2022/04/12 10:31:25;;;;;;;3.67;1.33;;;;;;;26.69;13.71;93541.34;5029813;28;20045;-54
2022/04/12 10:34:11;;;;;;;2.87;1.30;;;;;;;25.34;14.33;93541.88;5029218;28;20123;-53
2022/04/12 10:36:54;;;;;;;2.50;1.20;;;;;;;27.70;12.76;93529.94;5030356;28;20045;-52
2022/04/12 10:39:50;;;;;;;2.10;1.08;;;;;;;28.17;12.32;93528.66;5029458;28;20580;-55
2022/04/12 10:42:24;;;;;;;2.67;1.30;;;;;;;28.29;12.21;93513.03;5029776;28;20049;-51
2022/04/12 10:44:53;;;;;;;2.60;1.10;;;;;;;26.45;13.88;93516.03;5029934;28;20048;-50
2022/04/12 10:47:21;;;;;;;2.40;1.10;;;;;;;26.24;12.90;93521.38;5029499;28;20126;-53
2022/04/12 10:50:05;;;;;;;2.55;1.10;;;;;;;27.11;12.92;93510.09;5028974;28;20052;-50
2022/04/12 10:52:46;;;;;;;2.47;1.20;;;;;;;26.49;13.49;93511.63;5029224;28;20214;-55
2022/04/12 10:55:18;;;;;;;2.85;1.10;;;;;;;25.60;13.75;93507.69;5029596;28;20080;-54
2022/04/12 10:57:45;;;;;;;5.72;1.10;;;;;;;25.48;14.04;93515.47;5030560;28;20453;-52
2022/04/12 11:00:16;;;;;;;2.80;1.03;;;;;;;24.82;15.52;93499.28;5028197;28;20046;-51
2022/04/12 11:02:44;;;;;;;2.50;1.10;;;;;;;23.72;15.47;93498.63;5028999;28;20049;-51
2022/04/12 11:05:43;;;;;;;2.60;1.02;;;;;;;24.24;15.62;93504.88;5029562;28;20425;-51
2022/04/12 11:08:13;;;;;;;2.95;1.30;;;;;;;22.71;17.84;93498.56;5023794;28;20045;-48
2022/04/12 11:11:00;;;;;;;11.23;1.42;;;;;;;22.39;18.08;93495.16;5029920;28;20045;-49
2022/04/12 11:13:28;;;;;;;7.80;1.23;;;;;;;23.18;18.04;93500.94;5025347;28;20071;-52
2022/04/12 11:16:01;;;;;;;3.97;1.20;;;;;;;21.84;19.10;93499.97;5024199;28;20095;-47
2022/04/12 11:18:53;;;;;;;2.75;0.90;;;;;;;22.33;18.51;93495.16;5009641;28;20046;-51
2022/04/12 11:21:23;;;;;;;5.15;1.20;;;;;;;23.76;18.14;93498.34;5009824;28;20053;-54
2022/04/12 11:24:00;;;;;;;3.92;1.30;;;;;;;22.60;18.96;93507.69;5010140;28;20053;-51
2022/04/12 11:26:37;;;;;;;26.97;2.10;;;;;;;21.40;19.96;93499.16;5008453;28;20038;-50
2022/04/12 11:29:10;;;;;;;43.17;3.78;;;;;;;21.32;20.76;93498.84;5020834;28;20505;-52
2022/04/12 11:31:44;;;;;;;5.50;1.30;;;;;;;21.92;19.84;93504.59;5029529;28;20045;-51
2022/04/12 11:34:12;;;;;;;3.67;1.30;;;;;;;21.33;20.78;93505.97;5028813;28;20058;-54
2022/04/12 11:36:42;;;;;;;2.63;1.17;;;;;;;21.28;21.34;93506.69;5029627;28;20041;-52
2022/04/12 11:39:09;;;;;;;2.83;1.20;;;;;;;20.77;21.74;93515.88;5029275;28;20509;-50
2022/04/12 11:41:36;;;;;;;3.53;1.40;;;;;;;19.67;23.62;93508.69;5029391;28;20045;-52
2022/04/12 11:44:05;;;;;;;2.80;1.20;;;;;;;20.27;23.51;93505.69;5030045;28;20052;-51